createdAt,value
2023-05-15T00:00:37.788Z,101633.67
2023-05-15T00:03:07.546Z,101632.89
2023-05-15T00:05:37.490Z,101627.41
2023-05-15T00:08:07.271Z,101633.02
2023-05-15T00:10:37.376Z,101632.31
2023-05-15T00:13:07.580Z,101620.23
2023-05-15T00:15:37.155Z,101620.81
2023-05-15T00:18:06.624Z,101625.34
2023-05-15T00:20:36.341Z,101626.44
2023-05-15T00:23:05.684Z,101626.08
2023-05-15T00:25:35.107Z,101628.30
2023-05-15T00:28:04.526Z,101624.92
2023-05-15T00:30:34.037Z,101617.24
2023-05-15T00:33:03.401Z,101619.58
2023-05-15T00:35:34.189Z,101613.05
2023-05-15T00:38:03.804Z,101607.02
2023-05-15T00:40:34.077Z,101616.08
2023-05-15T00:43:04.184Z,101614.57
2023-05-15T00:45:33.917Z,101614.34
2023-05-15T00:48:03.431Z,101608.38
2023-05-15T00:50:34.289Z,101605.63
2023-05-15T00:53:04.860Z,101596.47
2023-05-15T00:55:35.456Z,101593.05
2023-05-15T00:58:05.298Z,101584.33
2023-05-15T01:00:35.066Z,101588.77
2023-05-15T01:03:06.621Z,101587.92
2023-05-15T01:05:35.984Z,101584.41
2023-05-15T01:08:24.159Z,101583.02
2023-05-15T01:10:54.398Z,101584.77
2023-05-15T01:13:24.340Z,101576.16
2023-05-15T01:15:55.434Z,101573.36
2023-05-15T01:18:26.197Z,101573.97
2023-05-15T01:21:04.961Z,101577.53
2023-05-15T01:23:52.371Z,101569.72
2023-05-15T01:26:42.605Z,101565.81
2023-05-15T01:29:31.813Z,101563.02
2023-05-15T01:32:07.415Z,101583.20
2023-05-15T01:34:48.971Z,101579.72
2023-05-15T01:37:20.105Z,101578.19
2023-05-15T01:39:52.588Z,101580.19
2023-05-15T01:42:22.237Z,101579.15
2023-05-15T01:44:54.348Z,101575.88
2023-05-15T01:47:27.460Z,101573.47
2023-05-15T01:49:57.114Z,101580.47
2023-05-15T01:52:29.950Z,101584.62
2023-05-15T01:54:59.932Z,101581.67
2023-05-15T01:57:31.044Z,101589.89
2023-05-15T02:00:01.406Z,101577.91
2023-05-15T02:02:32.279Z,101581.14
2023-05-15T02:05:03.354Z,101580.15
2023-05-15T02:07:33.520Z,101580.54
2023-05-15T02:10:04.062Z,101577.84
2023-05-15T02:12:34.046Z,101572.69
2023-05-15T02:15:05.465Z,101575.06
2023-05-15T02:17:34.829Z,101574.64
2023-05-15T02:20:06.475Z,101563.06
2023-05-15T02:22:36.621Z,101571.52
2023-05-15T02:25:06.539Z,101567.28
2023-05-15T02:27:57.428Z,101563.16
2023-05-15T02:30:47.381Z,101565.58
2023-05-15T02:33:25.780Z,101567.70
2023-05-15T02:36:00.812Z,101565.85
2023-05-15T02:38:36.037Z,101568.27
2023-05-15T02:41:06.576Z,101567.17
2023-05-15T02:43:38.652Z,101570.55
2023-05-15T02:46:09.072Z,101568.02
2023-05-15T02:48:42.770Z,101565.92
2023-05-15T02:51:12.527Z,101572.96
2023-05-15T02:53:42.827Z,101579.78
2023-05-15T02:56:12.505Z,101573.64
2023-05-15T02:58:42.163Z,101573.64
2023-05-15T03:01:11.500Z,101572.00
2023-05-15T03:03:40.768Z,101576.84
2023-05-15T03:06:10.419Z,101565.97
2023-05-15T03:08:39.739Z,101568.48
2023-05-15T03:11:09.418Z,101561.48
2023-05-15T03:13:38.767Z,101556.59
2023-05-15T03:16:08.466Z,101553.70
2023-05-15T03:18:37.817Z,101554.77
2023-05-15T03:21:07.369Z,101556.19
2023-05-15T03:23:37.823Z,101553.81
2023-05-15T03:26:07.886Z,101546.03
2023-05-15T03:28:37.238Z,101547.98
2023-05-15T03:31:08.393Z,101548.20
2023-05-15T03:33:38.619Z,101546.88
2023-05-15T03:36:08.435Z,101552.32
2023-05-15T03:38:38.104Z,101546.46
2023-05-15T03:41:09.186Z,101542.55
2023-05-15T03:43:38.670Z,101542.27
2023-05-15T03:46:08.088Z,101537.22
2023-05-15T03:48:37.653Z,101537.44
2023-05-15T03:51:07.746Z,101536.86
2023-05-15T03:53:37.135Z,101531.82
2023-05-15T03:56:06.589Z,101535.63
2023-05-15T03:58:36.323Z,101543.30
2023-05-15T04:01:05.977Z,101543.13
2023-05-15T04:03:35.367Z,101539.18
2023-05-15T04:06:05.093Z,101548.70
2023-05-15T04:08:34.387Z,101545.83
2023-05-15T04:11:03.701Z,101547.95
2023-05-15T04:13:33.018Z,101550.66
2023-05-15T04:16:02.518Z,101547.45
2023-05-15T04:18:32.442Z,101546.50
2023-05-15T04:21:01.967Z,101553.20
2023-05-15T04:23:31.247Z,101554.48
2023-05-15T04:26:01.428Z,101558.85
2023-05-15T04:28:31.753Z,101556.93
2023-05-15T04:31:01.529Z,101556.78
2023-05-15T04:33:30.910Z,101567.22
2023-05-15T04:36:00.201Z,101563.27
2023-05-15T04:38:29.547Z,101572.19
2023-05-15T04:40:58.870Z,101560.94
2023-05-15T04:43:28.197Z,101561.21
2023-05-15T04:45:57.548Z,101561.05
2023-05-15T04:48:26.891Z,101562.16
2023-05-15T04:50:56.369Z,101563.61
2023-05-15T04:53:25.663Z,101562.30
2023-05-15T04:55:54.973Z,101564.92
2023-05-15T04:58:24.251Z,101562.06
2023-05-15T05:00:53.834Z,101562.91
2023-05-15T05:03:23.186Z,101564.12
2023-05-15T05:05:52.909Z,101564.98
2023-05-15T05:08:22.252Z,101573.16
2023-05-15T05:10:57.432Z,101571.16
2023-05-15T05:13:27.086Z,101565.47
2023-05-15T05:15:56.694Z,101567.13
2023-05-15T05:18:27.043Z,101572.69
2023-05-15T05:21:03.562Z,101568.09
2023-05-15T05:23:33.344Z,101570.08
2023-05-15T05:26:04.168Z,101576.61
2023-05-15T05:28:33.772Z,101578.80
2023-05-15T05:31:03.366Z,101577.69
2023-05-15T05:33:33.073Z,101581.08
2023-05-15T05:36:02.426Z,101580.83
2023-05-15T05:38:32.487Z,101579.60
2023-05-15T05:41:01.770Z,101581.19
2023-05-15T05:43:32.620Z,101581.06
2023-05-15T05:46:02.506Z,101573.73
2023-05-15T05:48:31.986Z,101579.88
2023-05-15T05:51:01.932Z,101581.55
2023-05-15T05:53:31.246Z,101580.34
2023-05-15T05:56:01.487Z,101584.67
2023-05-15T05:58:31.156Z,101589.60
2023-05-15T06:01:01.399Z,101576.89
2023-05-15T06:03:31.254Z,101576.39
2023-05-15T06:06:01.232Z,101578.09
2023-05-15T06:08:30.690Z,101575.67
2023-05-15T06:11:00.154Z,101574.36
2023-05-15T06:13:29.710Z,101571.35
2023-05-15T06:15:59.262Z,101574.70
2023-05-15T06:18:28.604Z,101575.45
2023-05-15T06:21:00.017Z,101580.16
2023-05-15T06:23:29.311Z,101573.19
2023-05-15T06:25:58.656Z,101572.41
2023-05-15T06:28:28.210Z,101563.39
2023-05-15T06:30:57.839Z,101569.16
2023-05-15T06:33:27.327Z,101572.19
2023-05-15T06:35:57.264Z,101560.44
2023-05-15T06:38:26.545Z,101561.53
2023-05-15T06:40:55.917Z,101564.45
2023-05-15T06:43:25.622Z,101557.55
2023-05-15T06:45:55.128Z,101558.87
2023-05-15T06:48:24.874Z,101553.59
2023-05-15T06:50:54.508Z,101552.81
2023-05-15T06:53:24.111Z,101542.64
2023-05-15T06:55:53.427Z,101545.21
2023-05-15T06:58:22.695Z,101549.10
2023-05-15T07:00:53.491Z,101554.86
2023-05-15T07:03:23.146Z,101556.34
2023-05-15T07:05:52.767Z,101560.34
2023-05-15T07:08:22.152Z,101565.96
2023-05-15T07:10:51.849Z,101571.72
2023-05-15T07:13:22.028Z,101577.97
2023-05-15T07:15:51.582Z,101580.32
2023-05-15T07:18:21.225Z,101574.05
2023-05-15T07:20:50.659Z,101575.38
2023-05-15T07:23:19.937Z,101570.69
2023-05-15T07:25:50.262Z,101562.56
2023-05-15T07:28:19.537Z,101564.08
2023-05-15T07:30:49.502Z,101567.05
2023-05-15T07:33:18.812Z,101561.16
2023-05-15T07:35:48.872Z,101561.75
2023-05-15T07:38:18.938Z,101563.66
2023-05-15T07:40:48.593Z,101561.78
2023-05-15T07:43:18.035Z,101554.28
2023-05-15T07:45:47.534Z,101557.50
2023-05-15T07:48:18.547Z,101559.58
2023-05-15T07:50:50.668Z,101557.67
2023-05-15T07:53:20.439Z,101560.21
2023-05-15T07:55:50.005Z,101554.26
2023-05-15T07:58:19.453Z,101554.66
2023-05-15T08:00:48.766Z,101559.44
2023-05-15T08:03:18.212Z,101553.75
2023-05-15T08:05:47.844Z,101558.50
2023-05-15T08:08:17.182Z,101563.72
2023-05-15T08:10:47.008Z,101560.63
2023-05-15T08:13:16.539Z,101567.25
2023-05-15T08:15:45.919Z,101562.68
2023-05-15T08:18:15.511Z,101558.95
2023-05-15T08:20:44.833Z,101562.48
2023-05-15T08:23:14.115Z,101567.95
2023-05-15T08:25:43.445Z,101567.21
2023-05-15T08:28:14.754Z,101569.94
2023-05-15T08:30:44.125Z,101570.09
2023-05-15T08:33:13.455Z,101571.61
2023-05-15T08:35:43.273Z,101566.98
2023-05-15T08:38:12.937Z,101562.09
2023-05-15T08:40:43.909Z,101573.65
2023-05-15T08:43:19.280Z,101574.06
2023-05-15T08:45:50.158Z,101573.84
2023-05-15T08:48:21.432Z,101572.13
2023-05-15T08:50:51.232Z,101571.72
2023-05-15T08:53:20.863Z,101577.24
2023-05-15T08:55:50.212Z,101576.62
2023-05-15T08:58:22.022Z,101572.38
2023-05-15T09:00:51.466Z,101577.30
2023-05-15T09:03:22.802Z,101572.33
2023-05-15T09:05:53.895Z,101578.36
2023-05-15T09:08:24.024Z,101576.96
2023-05-15T09:10:54.920Z,101578.27
2023-05-15T09:13:24.522Z,101578.75
2023-05-15T09:15:53.876Z,101582.52
2023-05-15T09:18:24.126Z,101584.29
2023-05-15T09:20:55.984Z,101587.36
2023-05-15T09:23:29.070Z,101587.73
2023-05-15T09:25:59.380Z,101586.56
2023-05-15T09:28:34.172Z,101591.45
2023-05-15T09:31:05.429Z,101587.80
2023-05-15T09:33:37.634Z,101586.61
2023-05-15T09:36:08.360Z,101586.56
2023-05-15T09:38:42.919Z,101592.03
2023-05-15T09:41:12.234Z,101583.02
2023-05-15T09:43:43.011Z,101581.32
2023-05-15T09:49:32.653Z,101587.01
2023-05-15T09:52:02.584Z,101589.31
2023-05-15T09:54:33.083Z,101587.73
2023-05-15T09:57:15.463Z,101589.08
2023-05-15T09:59:47.258Z,101589.71
2023-05-15T10:02:35.258Z,101589.80
2023-05-15T10:05:06.251Z,101590.00
2023-05-15T10:07:36.828Z,101588.47
2023-05-15T10:10:06.983Z,101587.46
2023-05-15T10:12:37.008Z,101585.08
2023-05-15T10:15:07.215Z,101590.38
2023-05-15T10:17:37.168Z,101586.70
2023-05-15T10:20:07.668Z,101589.78
2023-05-15T10:22:39.602Z,101590.38
2023-05-15T10:25:23.876Z,101592.30
2023-05-15T10:27:53.564Z,101594.08
2023-05-15T10:30:24.004Z,101589.05
2023-05-15T10:32:53.678Z,101596.99
2023-05-15T10:35:23.692Z,101590.56
2023-05-15T10:37:54.187Z,101591.11
2023-05-15T10:40:23.848Z,101585.93
2023-05-15T10:42:53.921Z,101591.15
2023-05-15T10:45:23.764Z,101588.14
2023-05-15T10:47:54.303Z,101583.78
2023-05-15T10:50:23.846Z,101581.27
2023-05-15T10:52:53.746Z,101585.18
2023-05-15T10:55:23.973Z,101584.16
2023-05-15T10:57:54.924Z,101587.42
2023-05-15T11:00:27.459Z,101582.53
2023-05-15T11:02:58.750Z,101578.26
2023-05-15T11:05:29.480Z,101576.98
2023-05-15T11:08:21.648Z,101580.39
2023-05-15T11:10:51.525Z,101580.23
2023-05-15T11:13:21.461Z,101585.00
2023-05-15T11:15:51.305Z,101578.70
2023-05-15T11:18:21.939Z,101584.64
2023-05-15T11:20:54.449Z,101587.24
2023-05-15T11:23:24.344Z,101586.50
2023-05-15T11:26:01.917Z,101582.28
2023-05-15T11:28:31.672Z,101572.72
2023-05-15T11:31:03.615Z,101575.50
2023-05-15T11:33:33.102Z,101571.67
2023-05-15T11:36:03.121Z,101571.02
2023-05-15T11:38:35.577Z,101574.38
2023-05-15T11:41:06.784Z,101565.05
2023-05-15T11:43:39.244Z,101569.63
2023-05-15T11:46:12.680Z,101568.59
2023-05-15T11:51:45.000Z,101573.00
2023-05-15T11:54:15.106Z,101567.42
2023-05-15T11:56:45.632Z,101573.73
2023-05-15T11:59:15.454Z,101566.14
2023-05-15T12:01:49.362Z,101573.22
2023-05-15T12:04:20.359Z,101575.59
2023-05-15T12:06:49.871Z,101569.02
2023-05-15T12:09:23.656Z,101570.80
2023-05-15T12:11:54.439Z,101578.11
2023-05-15T12:14:31.232Z,101578.00
2023-05-15T12:17:04.792Z,101575.46
2023-05-15T12:19:35.792Z,101575.48
2023-05-15T12:22:08.402Z,101577.16
2023-05-15T12:24:39.788Z,101568.46
2023-05-15T12:27:09.549Z,101577.89
2023-05-15T12:29:39.846Z,101576.18
2023-05-15T12:32:09.632Z,101580.12
2023-05-15T12:34:39.517Z,101579.20
2023-05-15T12:37:12.116Z,101580.17
2023-05-15T12:39:56.627Z,101580.17
2023-05-15T12:42:26.348Z,101576.77
2023-05-15T12:44:56.470Z,101575.23
2023-05-15T12:47:27.997Z,101583.52
2023-05-15T12:50:00.539Z,101577.88
2023-05-15T12:52:30.590Z,101585.41
2023-05-15T12:55:01.842Z,101580.33
2023-05-15T12:57:31.359Z,101590.09
2023-05-15T13:00:01.784Z,101590.91
2023-05-15T13:02:31.372Z,101590.98
2023-05-15T13:05:03.920Z,101590.59
2023-05-15T13:07:33.347Z,101592.33
2023-05-15T13:10:09.923Z,101597.98
2023-05-15T13:12:46.878Z,101596.63
2023-05-15T13:15:40.697Z,101603.27
2023-05-15T13:18:15.181Z,101602.23
2023-05-15T13:20:46.964Z,101604.72
2023-05-15T13:23:23.618Z,101606.99
2023-05-15T13:25:52.887Z,101607.55
2023-05-15T13:28:22.208Z,101615.06
2023-05-15T13:30:51.837Z,101618.20
2023-05-15T13:33:21.164Z,101621.92
2023-05-15T13:35:52.924Z,101614.71
2023-05-15T13:38:22.230Z,101619.70
2023-05-15T13:40:51.576Z,101627.66
2023-05-15T13:43:21.110Z,101628.83
2023-05-15T13:45:50.767Z,101624.00
2023-05-15T13:48:20.073Z,101625.84
2023-05-15T13:50:49.642Z,101626.42
2023-05-15T13:53:19.081Z,101622.50
2023-05-15T13:55:48.784Z,101628.12
2023-05-15T13:58:18.216Z,101625.72
2023-05-15T14:00:49.289Z,101621.34
2023-05-15T14:03:19.531Z,101621.91
2023-05-15T14:05:48.858Z,101619.48
2023-05-15T14:08:18.539Z,101623.64
2023-05-15T14:10:47.797Z,101617.78
2023-05-15T14:13:17.439Z,101623.00
2023-05-15T14:15:46.752Z,101622.14
2023-05-15T14:18:16.395Z,101623.78
2023-05-15T14:20:45.760Z,101623.34
2023-05-15T14:23:15.989Z,101627.89
2023-05-15T14:25:45.271Z,101626.63
2023-05-15T14:28:14.663Z,101632.78
2023-05-15T14:30:43.934Z,101630.41
2023-05-15T14:33:13.678Z,101633.64
2023-05-15T14:35:43.026Z,101624.50
2023-05-15T14:38:12.452Z,101626.83
2023-05-15T14:40:43.081Z,101638.21
2023-05-15T14:43:12.588Z,101631.91
2023-05-15T14:45:41.922Z,101629.84
2023-05-15T14:48:11.818Z,101634.42
2023-05-15T14:50:41.786Z,101641.31
2023-05-15T14:53:11.222Z,101629.91
2023-05-15T14:55:40.508Z,101639.28
2023-05-15T14:58:11.555Z,101641.50
2023-05-15T15:00:41.028Z,101644.41
2023-05-15T15:03:11.156Z,101647.42
2023-05-15T15:05:41.094Z,101648.97
2023-05-15T15:08:11.648Z,101643.49
2023-05-15T15:10:43.786Z,101642.30
2023-05-15T15:13:14.041Z,101638.94
2023-05-15T15:15:43.934Z,101635.91
2023-05-15T15:18:13.490Z,101638.46
2023-05-15T15:20:43.088Z,101640.25
2023-05-15T15:23:12.386Z,101638.81
2023-05-15T15:25:41.950Z,101638.69
2023-05-15T15:28:11.357Z,101642.17
2023-05-15T15:30:40.920Z,101644.91
2023-05-15T15:33:10.292Z,101645.86
2023-05-15T15:35:40.291Z,101644.78
2023-05-15T15:38:11.191Z,101650.55
2023-05-15T15:40:41.833Z,101654.63
2023-05-15T15:43:11.154Z,101656.68
2023-05-15T15:45:41.206Z,101660.98
2023-05-15T15:48:10.566Z,101661.27
2023-05-15T15:50:40.035Z,101661.61
2023-05-15T15:53:09.481Z,101667.17
2023-05-15T15:55:39.240Z,101668.72
2023-05-15T15:58:08.499Z,101668.59
2023-05-15T16:00:38.968Z,101665.13
2023-05-15T16:03:08.575Z,101666.84
2023-05-15T16:05:38.355Z,101668.99
2023-05-15T16:08:07.778Z,101671.75
2023-05-15T16:10:37.155Z,101674.16
2023-05-15T16:13:06.985Z,101673.56
2023-05-15T16:15:36.412Z,101683.17
2023-05-15T16:18:05.926Z,101677.06
2023-05-15T16:20:35.532Z,101683.92
2023-05-15T16:23:04.841Z,101681.86
2023-05-15T16:25:34.164Z,101684.03
2023-05-15T16:28:03.810Z,101686.41
2023-05-15T16:30:47.176Z,101686.39
2023-05-15T16:33:05.166Z,101689.50
2023-05-15T16:35:36.326Z,101694.86
2023-05-15T16:38:06.539Z,101694.86
2023-05-15T16:40:35.822Z,101694.39
2023-05-15T16:43:05.222Z,101683.61
2023-05-15T16:45:34.558Z,101696.30
2023-05-15T16:48:04.183Z,101700.02
2023-05-15T16:50:36.102Z,101697.73
2023-05-15T16:53:05.858Z,101700.36
2023-05-15T16:55:35.331Z,101697.50
2023-05-15T16:58:04.629Z,101699.55
2023-05-15T17:00:33.956Z,101703.16
2023-05-15T17:03:04.577Z,101701.56
2023-05-15T17:05:34.580Z,101708.73
2023-05-15T17:08:03.932Z,101702.84
2023-05-15T17:10:33.737Z,101709.08
2023-05-15T17:13:03.082Z,101708.00
2023-05-15T17:15:32.423Z,101718.69
2023-05-15T17:18:01.762Z,101722.41
2023-05-15T17:20:31.121Z,101726.08
2023-05-15T17:23:00.430Z,101725.63
2023-05-15T17:25:29.722Z,101736.64
2023-05-15T17:27:59.064Z,101734.69
2023-05-15T17:30:28.794Z,101725.95
2023-05-15T17:33:00.548Z,101734.44
2023-05-15T17:35:32.798Z,101732.32
2023-05-15T17:38:01.436Z,101747.61
2023-05-15T17:40:31.011Z,101738.33
2023-05-15T17:43:00.520Z,101747.09
2023-05-15T17:45:29.917Z,101743.02
2023-05-15T17:48:01.079Z,101747.55
2023-05-15T17:50:30.943Z,101751.04
2023-05-15T17:53:00.663Z,101746.44
2023-05-15T17:55:30.156Z,101744.05
2023-05-15T17:57:59.487Z,101747.91
2023-05-15T18:00:29.062Z,101752.71
2023-05-15T18:02:58.539Z,101759.06
2023-05-15T18:05:28.465Z,101762.18
2023-05-15T18:07:59.702Z,101754.83
2023-05-15T18:10:29.074Z,101763.94
2023-05-15T18:12:59.619Z,101772.78
2023-05-15T18:15:30.690Z,101774.05
2023-05-15T18:18:00.524Z,101774.23
2023-05-15T18:20:30.075Z,101782.28
2023-05-15T18:22:59.493Z,101777.53
2023-05-15T18:25:28.973Z,101785.02
2023-05-15T18:27:58.629Z,101786.23
2023-05-15T18:30:28.178Z,101787.02
2023-05-15T18:32:58.539Z,101791.14
2023-05-15T18:35:28.086Z,101788.31
2023-05-15T18:37:57.869Z,101798.27
2023-05-15T18:40:27.284Z,101797.78
2023-05-15T18:42:57.015Z,101796.11
2023-05-15T18:45:27.070Z,101796.89
2023-05-15T18:47:57.104Z,101801.67
2023-05-15T18:50:26.789Z,101805.23
2023-05-15T18:52:56.384Z,101803.77
2023-05-15T18:55:27.690Z,101805.30
2023-05-15T18:57:57.766Z,101802.27
2023-05-15T19:00:38.083Z,101811.12
2023-05-15T19:02:58.666Z,101815.61
2023-05-15T19:05:28.336Z,101819.45
2023-05-15T19:07:57.702Z,101820.31
2023-05-15T19:10:28.996Z,101820.34
2023-05-15T19:12:58.967Z,101829.45
2023-05-15T19:15:28.557Z,101828.24
2023-05-15T19:17:57.944Z,101825.46
2023-05-15T19:20:28.019Z,101836.02
2023-05-15T19:22:57.555Z,101835.81
2023-05-15T19:25:30.065Z,101837.75
2023-05-15T19:27:59.355Z,101832.75
2023-05-15T19:30:28.920Z,101828.48
2023-05-15T19:32:58.252Z,101836.17
2023-05-15T19:35:28.358Z,101836.72
2023-05-15T19:37:57.840Z,101840.26
2023-05-15T19:40:27.816Z,101841.42
2023-05-15T19:42:57.551Z,101845.79
2023-05-15T19:45:27.243Z,101850.39
2023-05-15T19:47:57.024Z,101850.59
2023-05-15T19:50:27.007Z,101849.58
2023-05-15T19:52:57.047Z,101863.00
2023-05-15T19:55:26.622Z,101856.36
2023-05-15T19:57:57.407Z,101865.77
2023-05-15T20:00:27.260Z,101857.67
2023-05-15T20:02:57.222Z,101861.98
2023-05-15T20:05:26.723Z,101870.58
2023-05-15T20:07:56.430Z,101872.00
2023-05-15T20:10:26.323Z,101881.09
2023-05-15T20:12:56.031Z,101877.80
2023-05-15T20:15:25.649Z,101884.09
2023-05-15T20:17:55.631Z,101882.95
2023-05-15T20:20:25.498Z,101887.53
2023-05-15T20:22:55.330Z,101889.70
2023-05-15T20:25:24.778Z,101897.23
2023-05-15T20:27:55.824Z,101903.81
2023-05-15T20:30:25.629Z,101908.48
2023-05-15T20:32:55.514Z,101910.39
2023-05-15T20:35:26.012Z,101917.13
2023-05-15T20:37:56.458Z,101921.83
2023-05-15T20:40:28.901Z,101913.95
2023-05-15T20:42:57.800Z,101914.80
2023-05-15T20:45:27.362Z,101920.16
2023-05-15T20:47:57.608Z,101919.40
2023-05-15T20:50:27.404Z,101926.18
2023-05-15T20:52:56.932Z,101924.26
2023-05-15T20:55:26.695Z,101933.98
2023-05-15T20:57:56.044Z,101926.80
2023-05-15T21:00:25.842Z,101930.80
2023-05-15T21:02:55.497Z,101920.00
2023-05-15T21:05:25.062Z,101927.14
2023-05-15T21:07:54.502Z,101926.69
2023-05-15T21:10:24.357Z,101930.77
2023-05-15T21:12:55.099Z,101932.84
2023-05-15T21:15:25.311Z,101934.06
2023-05-15T21:17:54.907Z,101934.72
2023-05-15T21:20:24.433Z,101928.80
2023-05-15T21:22:54.089Z,101938.01
2023-05-15T21:25:23.724Z,101946.76
2023-05-15T21:27:53.341Z,101950.31
2023-05-15T21:30:22.719Z,101950.05
2023-05-15T21:32:52.081Z,101951.66
2023-05-15T21:35:21.451Z,101950.14
2023-05-15T21:37:50.835Z,101951.66
2023-05-15T21:40:20.167Z,101961.05
2023-05-15T21:42:49.498Z,101955.06
2023-05-15T21:45:19.505Z,101959.55
2023-05-15T21:47:48.894Z,101965.69
2023-05-15T21:50:18.733Z,101963.91
2023-05-15T21:52:49.783Z,101970.83
2023-05-15T21:55:19.590Z,101973.07
2023-05-15T21:57:48.847Z,101971.95
2023-05-15T22:00:18.472Z,101975.13
2023-05-15T22:02:47.920Z,101969.14
2023-05-15T22:05:18.910Z,101972.50
2023-05-15T22:07:48.218Z,101974.19
2023-05-15T22:10:17.946Z,101975.50
2023-05-15T22:12:47.293Z,101974.92
2023-05-15T22:15:16.991Z,101971.75
2023-05-15T22:17:46.491Z,101974.38
2023-05-15T22:20:17.582Z,101979.14
2023-05-15T22:22:46.995Z,101975.11
2023-05-15T22:25:16.446Z,101981.95
2023-05-15T22:27:45.829Z,101977.92
2023-05-15T22:30:15.626Z,101973.25
2023-05-15T22:32:45.320Z,101978.66
2023-05-15T22:35:14.780Z,101973.22
2023-05-15T22:37:45.481Z,101976.03
2023-05-15T22:40:15.503Z,101973.37
2023-05-15T22:42:44.834Z,101982.28
2023-05-15T22:45:14.627Z,101983.47
2023-05-15T22:47:44.343Z,101985.45
2023-05-15T22:50:14.265Z,101984.01
2023-05-15T22:52:43.713Z,101990.39
2023-05-15T22:55:13.158Z,102002.61
2023-05-15T22:57:43.941Z,101995.37
2023-05-15T23:00:14.681Z,102001.48
2023-05-15T23:02:44.958Z,102000.34
2023-05-15T23:05:14.626Z,102003.61
2023-05-15T23:07:43.876Z,102005.78
2023-05-15T23:10:13.453Z,102004.38
2023-05-15T23:12:43.006Z,102001.30
2023-05-15T23:15:12.735Z,101997.72
2023-05-15T23:17:42.004Z,102000.84
2023-05-15T23:20:13.538Z,102004.91
2023-05-15T23:22:42.892Z,102009.30
2023-05-15T23:25:12.429Z,102003.69
2023-05-15T23:27:41.780Z,102005.36
2023-05-15T23:30:11.413Z,102008.52
2023-05-15T23:32:40.794Z,102010.02
2023-05-15T23:35:10.797Z,102014.03
2023-05-15T23:37:40.072Z,102019.55
2023-05-15T23:40:10.408Z,102017.95
2023-05-15T23:42:39.690Z,102019.41
2023-05-15T23:45:10.359Z,102025.42
2023-05-15T23:47:40.586Z,102021.12
2023-05-15T23:50:10.363Z,102027.45
2023-05-15T23:52:39.671Z,102026.02
2023-05-15T23:55:09.596Z,102026.39
2023-05-15T23:57:39.189Z,102026.11
